createdAt,value
2022-07-28T00:00:44.567Z,9.745725
2022-07-28T00:01:44.556Z,9.745647
2022-07-28T00:02:44.665Z,9.745623
2022-07-28T00:03:44.518Z,9.745523
2022-07-28T00:04:44.505Z,9.745698
2022-07-28T00:05:44.503Z,9.745642
2022-07-28T00:06:44.492Z,9.745520
2022-07-28T00:07:44.485Z,9.745489
2022-07-28T00:08:44.500Z,9.745786
2022-07-28T00:09:44.466Z,9.745668
2022-07-28T00:10:44.468Z,9.745212
2022-07-28T00:11:54.210Z,9.745265
2022-07-28T00:12:45.473Z,9.745379
2022-07-28T00:13:44.441Z,9.745438
2022-07-28T00:14:44.439Z,9.745765
2022-07-28T00:15:44.422Z,9.745854
2022-07-28T00:16:44.451Z,9.745510
2022-07-28T00:17:44.432Z,9.745356
2022-07-28T00:18:44.398Z,9.745682
2022-07-28T00:19:44.392Z,9.745601
2022-07-28T00:20:44.386Z,9.745730
2022-07-28T00:21:44.377Z,9.745348
2022-07-28T00:22:44.396Z,9.745706
2022-07-28T00:23:44.360Z,9.745232
2022-07-28T00:24:44.355Z,9.745527
2022-07-28T00:25:44.343Z,9.745877
2022-07-28T00:26:46.648Z,9.746302
2022-07-28T00:27:44.360Z,9.746483
2022-07-28T00:28:44.320Z,9.745545
2022-07-28T00:29:50.394Z,9.745967
2022-07-28T00:30:46.302Z,9.745562
2022-07-28T00:31:44.323Z,9.745049
2022-07-28T00:32:44.287Z,9.744991
2022-07-28T00:33:44.304Z,9.745063
2022-07-28T00:34:44.271Z,9.744274
2022-07-28T00:35:48.395Z,9.744197
2022-07-28T00:36:44.267Z,9.744434
2022-07-28T00:37:44.272Z,9.744470
2022-07-28T00:38:45.942Z,9.744470
2022-07-28T00:39:44.233Z,9.744470
2022-07-28T00:40:44.227Z,9.744470
2022-07-28T00:41:44.212Z,9.744470
2022-07-28T00:42:44.237Z,9.744913
2022-07-28T00:43:44.196Z,9.745006
2022-07-28T00:44:44.196Z,9.745006
2022-07-28T00:45:44.189Z,9.744622
2022-07-28T00:46:44.215Z,9.744973
2022-07-28T00:47:44.194Z,9.744971
2022-07-28T00:48:44.248Z,9.744971
2022-07-28T00:49:44.157Z,9.744971
2022-07-28T00:50:44.150Z,9.744701
2022-07-28T00:51:44.142Z,9.744701
2022-07-28T00:52:44.164Z,9.744701
2022-07-28T00:53:45.126Z,9.744701
2022-07-28T00:54:44.119Z,9.744701
2022-07-28T00:56:03.313Z,9.744701
2022-07-28T00:56:45.105Z,9.744701
2022-07-28T00:57:44.116Z,9.744701
2022-07-28T00:58:44.082Z,9.744701
2022-07-28T00:59:44.076Z,9.744701
2022-07-28T01:00:44.074Z,9.744701
2022-07-28T01:01:44.115Z,9.744701
2022-07-28T01:02:44.180Z,9.744701
2022-07-28T01:03:44.056Z,9.744701
2022-07-28T01:04:44.047Z,9.744701
2022-07-28T01:05:44.460Z,9.744701
2022-07-28T01:06:44.030Z,9.744701
2022-07-28T01:07:44.055Z,9.744701
2022-07-28T01:08:44.011Z,9.744701
2022-07-28T01:09:44.002Z,9.744701
2022-07-28T01:10:43.995Z,9.744701
2022-07-28T01:11:43.991Z,9.744560
2022-07-28T01:12:43.982Z,9.745079
2022-07-28T01:13:44.011Z,9.745381
2022-07-28T01:14:43.968Z,9.745665
2022-07-28T01:15:44.041Z,9.745530
2022-07-28T01:16:43.947Z,9.745377
2022-07-28T01:17:43.935Z,9.745630
2022-07-28T01:18:44.574Z,9.745421
2022-07-28T01:19:43.926Z,9.745485
2022-07-28T01:20:43.921Z,9.745747
2022-07-28T01:21:43.909Z,9.746022
2022-07-28T01:22:43.900Z,9.745678
2022-07-28T01:23:43.921Z,9.745725
2022-07-28T01:24:43.876Z,9.745542
2022-07-28T01:25:48.461Z,9.745465
2022-07-28T01:26:43.872Z,9.745446
2022-07-28T01:27:43.860Z,9.745529
2022-07-28T01:28:43.879Z,9.745347
2022-07-28T01:29:43.850Z,9.745179
2022-07-28T01:30:43.912Z,9.745524
2022-07-28T01:31:43.946Z,9.745550
2022-07-28T01:32:43.828Z,9.745253
2022-07-28T01:33:43.843Z,9.745370
2022-07-28T01:34:43.808Z,9.745378
2022-07-28T01:35:43.800Z,9.745254
2022-07-28T01:36:43.793Z,9.745272
2022-07-28T01:37:43.785Z,9.745539
2022-07-28T01:38:43.805Z,9.745463
2022-07-28T01:39:43.770Z,9.745740
2022-07-28T01:40:43.765Z,9.745500
2022-07-28T01:41:43.756Z,9.745497
2022-07-28T01:42:43.750Z,9.745775
2022-07-28T01:43:43.768Z,9.745591
2022-07-28T01:44:43.732Z,9.745565
2022-07-28T01:45:43.723Z,9.745590
2022-07-28T01:46:43.804Z,9.745417
2022-07-28T01:47:43.706Z,9.745393
2022-07-28T01:48:43.779Z,9.746000
2022-07-28T01:49:43.691Z,9.745688
2022-07-28T01:50:43.683Z,9.745498
2022-07-28T01:51:43.677Z,9.745496
2022-07-28T01:52:43.668Z,9.745324
2022-07-28T01:53:43.677Z,9.745379
2022-07-28T01:54:44.657Z,9.745511
2022-07-28T01:55:43.649Z,9.745554
2022-07-28T01:56:43.637Z,9.745507
2022-07-28T01:57:43.633Z,9.745570
2022-07-28T01:58:43.646Z,9.745683
2022-07-28T01:59:43.620Z,9.745545
2022-07-28T02:00:43.610Z,9.745452
2022-07-28T02:01:43.713Z,9.745392
2022-07-28T02:02:43.593Z,9.745389
2022-07-28T02:03:43.619Z,9.745240
2022-07-28T02:04:43.684Z,9.745177
2022-07-28T02:05:43.572Z,9.745421
2022-07-28T02:06:43.566Z,9.745414
2022-07-28T02:07:43.561Z,9.745555
2022-07-28T02:08:43.574Z,9.745402
2022-07-28T02:09:43.546Z,9.745431
2022-07-28T02:10:43.537Z,9.745497
2022-07-28T02:11:43.528Z,9.745448
2022-07-28T02:12:43.524Z,9.745593
2022-07-28T02:13:43.541Z,9.745490
2022-07-28T02:14:43.502Z,9.745496
2022-07-28T02:15:43.545Z,9.745443
2022-07-28T02:16:43.495Z,9.745493
2022-07-28T02:17:43.483Z,9.745383
2022-07-28T02:18:43.500Z,9.745482
2022-07-28T02:19:43.463Z,9.745498
2022-07-28T02:20:43.455Z,9.745438
2022-07-28T02:21:43.451Z,9.745552
2022-07-28T02:22:43.442Z,9.745557
2022-07-28T02:23:43.466Z,9.745503
2022-07-28T02:24:43.426Z,9.745591
2022-07-28T02:25:43.416Z,9.745458
2022-07-28T02:26:43.409Z,9.745565
2022-07-28T02:27:43.403Z,9.745622
2022-07-28T02:28:43.427Z,9.745646
2022-07-28T02:29:51.622Z,9.745485
2022-07-28T02:30:45.443Z,9.745502
2022-07-28T02:31:43.369Z,9.745522
2022-07-28T02:32:43.355Z,9.745527
2022-07-28T02:33:58.634Z,9.745630
2022-07-28T02:34:44.343Z,9.745754
2022-07-28T02:35:43.334Z,9.745388
2022-07-28T02:36:43.332Z,9.745550
2022-07-28T02:37:43.322Z,9.745571
2022-07-28T02:38:43.313Z,9.745670
2022-07-28T02:39:43.329Z,9.745564
2022-07-28T02:40:44.308Z,9.745581
2022-07-28T02:41:43.290Z,9.745558
2022-07-28T02:42:43.283Z,9.745807
2022-07-28T02:43:50.037Z,9.745857
2022-07-28T02:44:44.288Z,9.745710
2022-07-28T02:45:43.258Z,9.745787
2022-07-28T02:46:43.291Z,9.745667
2022-07-28T02:47:43.243Z,9.745493
2022-07-28T02:48:43.255Z,9.745483
2022-07-28T02:49:43.256Z,9.745613
2022-07-28T02:50:43.225Z,9.745728
2022-07-28T02:51:43.213Z,9.745435
2022-07-28T02:52:43.205Z,9.745295
2022-07-28T02:53:43.199Z,9.745475
2022-07-28T02:54:43.208Z,9.745637
2022-07-28T02:55:43.182Z,9.745555
2022-07-28T02:56:53.263Z,9.745381
2022-07-28T02:57:44.165Z,9.745551
2022-07-28T02:58:43.160Z,9.745323
2022-07-28T02:59:43.175Z,9.745383
2022-07-28T03:00:43.134Z,9.745416
2022-07-28T03:01:44.195Z,9.745373
2022-07-28T03:02:43.139Z,9.745281
2022-07-28T03:03:44.205Z,9.745103
2022-07-28T03:04:44.180Z,9.745082
2022-07-28T03:05:43.131Z,9.745228
2022-07-28T03:06:43.103Z,9.745618
2022-07-28T03:07:51.149Z,9.745446
2022-07-28T03:08:44.087Z,9.745049
2022-07-28T03:09:43.104Z,9.745055
2022-07-28T03:10:43.074Z,9.745416
2022-07-28T03:11:43.059Z,9.745305
2022-07-28T03:12:43.057Z,9.745473
2022-07-28T03:13:43.051Z,9.745526
2022-07-28T03:14:43.072Z,9.745572
2022-07-28T03:15:43.035Z,9.745603
2022-07-28T03:16:43.121Z,9.745406
2022-07-28T03:17:43.018Z,9.745291
2022-07-28T03:18:43.008Z,9.745475
2022-07-28T03:19:43.024Z,9.745487
2022-07-28T03:20:42.995Z,9.745554
2022-07-28T03:21:42.984Z,9.745222
2022-07-28T03:22:42.987Z,9.745399
2022-07-28T03:23:42.962Z,9.745408
2022-07-28T03:24:42.988Z,9.745311
2022-07-28T03:25:42.958Z,9.745552
2022-07-28T03:26:42.951Z,9.745582
2022-07-28T03:27:42.939Z,9.745426
2022-07-28T03:28:42.934Z,9.745459
2022-07-28T03:29:42.950Z,9.745441
2022-07-28T03:30:43.042Z,9.744645
2022-07-28T03:31:42.906Z,9.744957
2022-07-28T03:32:42.893Z,9.745140
2022-07-28T03:33:42.888Z,9.745417
2022-07-28T03:34:42.909Z,9.745814
2022-07-28T03:35:42.878Z,9.745934
2022-07-28T03:36:42.861Z,9.745603
2022-07-28T03:37:42.848Z,9.745387
2022-07-28T03:38:43.851Z,9.745481
2022-07-28T03:39:42.868Z,9.745427
2022-07-28T03:40:46.111Z,9.745362
2022-07-28T03:41:42.828Z,9.745276
2022-07-28T03:42:42.817Z,9.745200
2022-07-28T03:43:42.815Z,9.745325
2022-07-28T03:44:42.830Z,9.745362
2022-07-28T03:45:42.847Z,9.745399
2022-07-28T03:46:42.805Z,9.745564
2022-07-28T03:47:42.795Z,9.745611
2022-07-28T03:48:42.837Z,9.745663
2022-07-28T03:49:42.794Z,9.745556
2022-07-28T03:50:42.755Z,9.745363
2022-07-28T03:51:42.755Z,9.745437
2022-07-28T03:52:42.744Z,9.745467
2022-07-28T03:53:42.732Z,9.745547
2022-07-28T03:54:42.746Z,9.745521
2022-07-28T03:55:42.723Z,9.745335
2022-07-28T03:56:42.718Z,9.745415
2022-07-28T03:57:42.701Z,9.745375
2022-07-28T03:58:42.688Z,9.745552
2022-07-28T03:59:42.719Z,9.745486
2022-07-28T04:00:42.686Z,9.745259
2022-07-28T04:01:42.708Z,9.745536
2022-07-28T04:02:42.688Z,9.745584
2022-07-28T04:03:44.495Z,9.745263
2022-07-28T04:04:43.674Z,9.745395
2022-07-28T04:05:42.647Z,9.745630
2022-07-28T04:06:42.638Z,9.745763
2022-07-28T04:07:42.625Z,9.745906
2022-07-28T04:08:42.622Z,9.746200
2022-07-28T04:09:42.646Z,9.745936
2022-07-28T04:10:42.611Z,9.745893
2022-07-28T04:11:42.602Z,9.745695
2022-07-28T04:12:42.594Z,9.745499
2022-07-28T04:13:42.580Z,9.745535
2022-07-28T04:14:42.603Z,9.745346
2022-07-28T04:15:42.570Z,9.745225
2022-07-28T04:16:42.639Z,9.745579
2022-07-28T04:17:42.554Z,9.745524
2022-07-28T04:18:42.550Z,9.745548
2022-07-28T04:19:42.554Z,9.745263
2022-07-28T04:20:43.533Z,9.745369
2022-07-28T04:21:42.521Z,9.745592
2022-07-28T04:22:42.513Z,9.745571
2022-07-28T04:23:42.510Z,9.745482
2022-07-28T04:24:42.524Z,9.745243
2022-07-28T04:25:42.490Z,9.745414
2022-07-28T04:26:44.218Z,9.745379
2022-07-28T04:27:42.479Z,9.745529
2022-07-28T04:28:42.465Z,9.745528
2022-07-28T04:29:42.478Z,9.745411
2022-07-28T04:30:44.088Z,9.745474
2022-07-28T04:31:42.437Z,9.745413
2022-07-28T04:32:42.433Z,9.745502
2022-07-28T04:33:42.423Z,9.745413
2022-07-28T04:34:42.417Z,9.745388
2022-07-28T04:35:42.432Z,9.745453
2022-07-28T04:36:42.394Z,9.745408
2022-07-28T04:37:43.390Z,9.745448
2022-07-28T04:38:42.379Z,9.745458
2022-07-28T04:39:42.372Z,9.745582
2022-07-28T04:40:42.410Z,9.745525
2022-07-28T04:41:42.366Z,9.745289
2022-07-28T04:42:42.348Z,9.745437
2022-07-28T04:43:42.341Z,9.745405
2022-07-28T04:44:42.360Z,9.745465
2022-07-28T04:45:53.610Z,9.745439
2022-07-28T04:46:43.396Z,9.745431
2022-07-28T04:47:42.310Z,9.745491
2022-07-28T04:48:42.358Z,9.745498
2022-07-28T04:49:42.292Z,9.745543
2022-07-28T04:50:42.314Z,9.745528
2022-07-28T04:51:42.279Z,9.745579
2022-07-28T04:52:42.272Z,9.745481
2022-07-28T04:53:42.268Z,9.745506
2022-07-28T04:54:42.258Z,9.745535
2022-07-28T04:55:42.284Z,9.745410
2022-07-28T04:56:42.240Z,9.745456
2022-07-28T04:57:42.242Z,9.745374
2022-07-28T04:58:42.225Z,9.745250
2022-07-28T04:59:42.218Z,9.745410
2022-07-28T05:00:42.329Z,9.745113
2022-07-28T05:01:42.255Z,9.745383
2022-07-28T05:02:42.198Z,9.745339
2022-07-28T05:03:42.197Z,9.745586
2022-07-28T05:04:42.234Z,9.745535
2022-07-28T05:05:42.198Z,9.745540
2022-07-28T05:06:42.164Z,9.745407
2022-07-28T05:07:42.157Z,9.745378
2022-07-28T05:08:42.147Z,9.745601
2022-07-28T05:09:42.142Z,9.745501
2022-07-28T05:10:42.164Z,9.745531
2022-07-28T05:11:42.126Z,9.745461
2022-07-28T05:12:42.127Z,9.745327
2022-07-28T05:13:42.113Z,9.745495
2022-07-28T05:14:42.111Z,9.745571
2022-07-28T05:15:42.118Z,9.745721
2022-07-28T05:16:42.144Z,9.745634
2022-07-28T05:17:42.081Z,9.745480
2022-07-28T05:18:42.080Z,9.745334
2022-07-28T05:19:42.061Z,9.745320
2022-07-28T05:20:42.082Z,9.745462
2022-07-28T05:21:42.050Z,9.745278
2022-07-28T05:22:42.048Z,9.745171
2022-07-28T05:23:45.703Z,9.745131
2022-07-28T05:24:44.026Z,9.745412
2022-07-28T05:25:42.045Z,9.745523
2022-07-28T05:26:42.008Z,9.745402
2022-07-28T05:27:42.003Z,9.745381
2022-07-28T05:28:41.992Z,9.745440
2022-07-28T05:29:47.667Z,9.745511
2022-07-28T05:30:43.351Z,9.745295
2022-07-28T05:31:42.109Z,9.745105
2022-07-28T05:32:41.968Z,9.745269
2022-07-28T05:33:41.960Z,9.745341
2022-07-28T05:34:41.954Z,9.745377
2022-07-28T05:35:41.939Z,9.745354
2022-07-28T05:36:41.958Z,9.745229
2022-07-28T05:37:41.926Z,9.745249
2022-07-28T05:38:41.920Z,9.745199
2022-07-28T05:39:41.905Z,9.745274
2022-07-28T05:40:41.901Z,9.745376
2022-07-28T05:41:41.916Z,9.745420
2022-07-28T05:42:41.887Z,9.745551
2022-07-28T05:43:41.877Z,9.745425
2022-07-28T05:44:41.871Z,9.745291
2022-07-28T05:45:41.878Z,9.745287
2022-07-28T05:46:41.881Z,9.745365
2022-07-28T05:47:41.851Z,9.745331
2022-07-28T05:48:41.878Z,9.745070
2022-07-28T05:49:41.844Z,9.745202
2022-07-28T05:50:41.828Z,9.745335
2022-07-28T05:51:42.100Z,9.745333
2022-07-28T05:52:42.808Z,9.745421
2022-07-28T05:53:41.810Z,9.745044
2022-07-28T05:54:41.795Z,9.745373
2022-07-28T05:55:59.815Z,9.745407
2022-07-28T05:56:45.911Z,9.745289
2022-07-28T05:57:42.771Z,9.745284
2022-07-28T05:58:41.780Z,9.745010
2022-07-28T05:59:41.767Z,9.745504
2022-07-28T06:00:41.818Z,9.745388
2022-07-28T06:01:41.799Z,9.745093
2022-07-28T06:02:42.775Z,9.745396
2022-07-28T06:03:42.640Z,9.745117
2022-07-28T06:04:42.726Z,9.746020
2022-07-28T06:06:14.453Z,9.745576
2022-07-28T06:06:42.739Z,9.745295
2022-07-28T06:07:42.955Z,9.745356
2022-07-28T06:08:41.705Z,9.745484
2022-07-28T06:09:45.077Z,9.745677
2022-07-28T06:10:42.686Z,9.745595
2022-07-28T06:11:41.703Z,9.745543
2022-07-28T06:12:41.673Z,9.745671
2022-07-28T06:13:41.670Z,9.745895
2022-07-28T06:14:41.667Z,9.745761
2022-07-28T06:15:41.653Z,9.745671
2022-07-28T06:16:41.749Z,9.745842
2022-07-28T06:17:41.638Z,9.745747
2022-07-28T06:18:41.634Z,9.745674
2022-07-28T06:19:41.647Z,9.745549
2022-07-28T06:20:41.625Z,9.746269
2022-07-28T06:21:41.681Z,9.745533
2022-07-28T06:22:41.612Z,9.745440
2022-07-28T06:23:41.598Z,9.745362
2022-07-28T06:24:41.592Z,9.745234
2022-07-28T06:25:41.589Z,9.745356
2022-07-28T06:26:44.698Z,9.745893
2022-07-28T06:27:42.571Z,9.745986
2022-07-28T06:28:41.561Z,9.745373
2022-07-28T06:29:41.560Z,9.745440
2022-07-28T06:30:41.554Z,9.745478
2022-07-28T06:31:41.670Z,9.745737
2022-07-28T06:32:41.542Z,9.745445
2022-07-28T06:33:41.540Z,9.745509
2022-07-28T06:34:41.534Z,9.745895
2022-07-28T06:35:45.886Z,9.745604
2022-07-28T06:36:42.545Z,9.745543
2022-07-28T06:37:41.530Z,9.745481
2022-07-28T06:38:41.503Z,9.745679
2022-07-28T06:39:41.494Z,9.745459
2022-07-28T06:40:41.497Z,9.745421
2022-07-28T06:41:41.539Z,9.745508
2022-07-28T06:42:41.477Z,9.745637
2022-07-28T06:43:41.466Z,9.745757
2022-07-28T06:44:57.930Z,9.745511
2022-07-28T06:45:43.450Z,9.745371
2022-07-28T06:46:41.533Z,9.745753
2022-07-28T06:47:45.695Z,9.745565
2022-07-28T06:48:42.485Z,9.745636
2022-07-28T06:49:41.426Z,9.745396
2022-07-28T06:50:41.417Z,9.745168
2022-07-28T06:51:41.440Z,9.745399
2022-07-28T06:52:41.408Z,9.745174
2022-07-28T06:53:41.404Z,9.745149
2022-07-28T06:54:41.389Z,9.745288
2022-07-28T06:55:42.380Z,9.745310
2022-07-28T06:56:42.399Z,9.745334
2022-07-28T06:57:41.376Z,9.745208
2022-07-28T06:58:41.357Z,9.745243
2022-07-28T06:59:41.359Z,9.745296
2022-07-28T07:00:41.376Z,9.745356
2022-07-28T07:01:41.376Z,9.745627
2022-07-28T07:02:41.345Z,9.745671
2022-07-28T07:03:41.323Z,9.745423
2022-07-28T07:04:41.415Z,9.745488
2022-07-28T07:05:41.323Z,9.745372
2022-07-28T07:06:41.328Z,9.745521
2022-07-28T07:07:43.630Z,9.745511
2022-07-28T07:08:42.292Z,9.745686
2022-07-28T07:09:41.293Z,9.745641
2022-07-28T07:10:41.288Z,9.745400
2022-07-28T07:11:41.300Z,9.745353
2022-07-28T07:12:41.271Z,9.745551
2022-07-28T07:13:41.256Z,9.745258
2022-07-28T07:14:41.254Z,9.745415
2022-07-28T07:15:41.253Z,9.745410
2022-07-28T07:16:41.291Z,9.745237
2022-07-28T07:17:41.241Z,9.745322
2022-07-28T07:18:41.232Z,9.745292
2022-07-28T07:19:41.218Z,9.745239
2022-07-28T07:20:41.213Z,9.745393
2022-07-28T07:21:41.233Z,9.745366
2022-07-28T07:22:41.204Z,9.745386
2022-07-28T07:23:41.198Z,9.745397
2022-07-28T07:24:41.190Z,9.745252
2022-07-28T07:25:41.178Z,9.745212
2022-07-28T07:26:41.203Z,9.745261
2022-07-28T07:27:41.165Z,9.745327
2022-07-28T07:28:41.154Z,9.745051
2022-07-28T07:29:41.157Z,9.745251
2022-07-28T07:30:41.147Z,9.745717
2022-07-28T07:31:41.218Z,9.745581
2022-07-28T07:32:41.143Z,9.745626
2022-07-28T07:33:41.132Z,9.745565
2022-07-28T07:34:41.120Z,9.745433
2022-07-28T07:35:41.119Z,9.745481
2022-07-28T07:36:41.108Z,9.745588
2022-07-28T07:37:41.124Z,9.745549
2022-07-28T07:38:41.101Z,9.745458
2022-07-28T07:39:41.083Z,9.745320
2022-07-28T07:40:41.089Z,9.744821
2022-07-28T07:41:41.074Z,9.744868
2022-07-28T07:42:41.083Z,9.745334
2022-07-28T07:43:45.786Z,9.745640
2022-07-28T07:44:43.048Z,9.745195
2022-07-28T07:45:42.038Z,9.745418
2022-07-28T07:46:41.107Z,9.745729
2022-07-28T07:47:41.056Z,9.746108
2022-07-28T07:48:41.069Z,9.744721
2022-07-28T07:49:45.194Z,9.745321
2022-07-28T07:50:43.020Z,9.745341
2022-07-28T07:51:41.007Z,9.745326
2022-07-28T07:52:41.030Z,9.745477
2022-07-28T07:53:40.992Z,9.745362
2022-07-28T07:54:40.980Z,9.745337
2022-07-28T07:55:40.972Z,9.745451
2022-07-28T07:56:40.969Z,9.745468
2022-07-28T07:57:40.984Z,9.745534
2022-07-28T07:58:40.950Z,9.745288
2022-07-28T07:59:40.944Z,9.745420
2022-07-28T08:00:40.949Z,9.745409
2022-07-28T08:01:40.973Z,9.745660
2022-07-28T08:02:40.955Z,9.745598
2022-07-28T08:03:40.917Z,9.745049
2022-07-28T08:04:40.959Z,9.745204
2022-07-28T08:05:40.907Z,9.745296
2022-07-28T08:06:40.904Z,9.745176
2022-07-28T08:07:40.914Z,9.745255
2022-07-28T08:08:45.102Z,9.745494
2022-07-28T08:09:42.869Z,9.745487
2022-07-28T08:10:41.872Z,9.745596
2022-07-28T08:11:40.866Z,9.745550
2022-07-28T08:12:40.887Z,9.745501
2022-07-28T08:13:40.868Z,9.745562
2022-07-28T08:14:40.839Z,9.745479
2022-07-28T08:15:40.892Z,9.745538
2022-07-28T08:16:40.925Z,9.745622
2022-07-28T08:17:40.849Z,9.745646
2022-07-28T08:18:40.821Z,9.745625
2022-07-28T08:19:40.808Z,9.745648
2022-07-28T08:20:41.702Z,9.745784
2022-07-28T08:21:40.801Z,9.745742
2022-07-28T08:22:40.814Z,9.745541
2022-07-28T08:23:40.784Z,9.745679
2022-07-28T08:24:40.775Z,9.745671
2022-07-28T08:25:40.767Z,9.745688
2022-07-28T08:26:40.763Z,9.745792
2022-07-28T08:27:40.778Z,9.745686
2022-07-28T08:28:40.748Z,9.745480
2022-07-28T08:29:40.742Z,9.745508
2022-07-28T08:30:40.735Z,9.745577
2022-07-28T08:31:40.803Z,9.745603
2022-07-28T08:32:40.752Z,9.745515
2022-07-28T08:33:53.840Z,9.745556
2022-07-28T08:34:41.711Z,9.745638
2022-07-28T08:35:40.702Z,9.745623
2022-07-28T08:36:40.691Z,9.745654
2022-07-28T08:37:40.714Z,9.745631
2022-07-28T08:38:40.685Z,9.745639
2022-07-28T08:39:40.672Z,9.745577
2022-07-28T08:40:40.663Z,9.745646
2022-07-28T08:41:40.656Z,9.745768
2022-07-28T08:42:40.654Z,9.745728
2022-07-28T08:43:40.672Z,9.745618
2022-07-28T08:44:40.640Z,9.745623
2022-07-28T08:45:40.629Z,9.745566
2022-07-28T08:46:40.688Z,9.745403
2022-07-28T08:47:58.866Z,9.745466
2022-07-28T08:48:42.669Z,9.745439
2022-07-28T08:49:41.603Z,9.745461
2022-07-28T08:50:40.590Z,9.745428
2022-07-28T08:51:40.580Z,9.745547
2022-07-28T08:52:40.574Z,9.745089
2022-07-28T08:53:41.587Z,9.745412
2022-07-28T08:54:40.556Z,9.745440
2022-07-28T08:55:41.556Z,9.745403
2022-07-28T08:56:40.549Z,9.745466
2022-07-28T08:57:41.541Z,9.745744
2022-07-28T08:58:40.560Z,9.745551
2022-07-28T08:59:40.530Z,9.745686
2022-07-28T09:00:40.519Z,9.745499
2022-07-28T09:01:40.669Z,9.745558
2022-07-28T09:02:40.617Z,9.745440
2022-07-28T09:03:40.550Z,9.745518
2022-07-28T09:04:40.493Z,9.745461
2022-07-28T09:05:40.480Z,9.745466
2022-07-28T09:06:40.470Z,9.745646
2022-07-28T09:07:40.465Z,9.745515
2022-07-28T09:08:40.483Z,9.745412
2022-07-28T09:09:40.458Z,9.745665
2022-07-28T09:10:40.443Z,9.745408
2022-07-28T09:11:40.442Z,9.745430
2022-07-28T09:12:40.439Z,9.745564
2022-07-28T09:13:40.468Z,9.745836
2022-07-28T09:14:40.417Z,9.745675
2022-07-28T09:15:40.458Z,9.745701
2022-07-28T09:16:40.399Z,9.745793
2022-07-28T09:17:40.410Z,9.745790
2022-07-28T09:18:40.413Z,9.745758
2022-07-28T09:19:40.379Z,9.745851
2022-07-28T09:20:41.371Z,9.745636
2022-07-28T09:21:40.365Z,9.745694
2022-07-28T09:22:40.365Z,9.745632
2022-07-28T09:23:43.817Z,9.745720
2022-07-28T09:24:40.346Z,9.745562
2022-07-28T09:25:40.341Z,9.745716
2022-07-28T09:26:40.327Z,9.745632
2022-07-28T09:27:40.354Z,9.745633
2022-07-28T09:28:40.339Z,9.745734
2022-07-28T09:29:40.315Z,9.745693
2022-07-28T09:30:53.812Z,9.745705
2022-07-28T09:31:41.352Z,9.745620
2022-07-28T09:32:40.282Z,9.745657
2022-07-28T09:33:42.502Z,9.745626
2022-07-28T09:34:40.269Z,9.745604
2022-07-28T09:35:40.265Z,9.745722
2022-07-28T09:36:40.244Z,9.745676
2022-07-28T09:37:41.250Z,9.745522
2022-07-28T09:38:40.266Z,9.745539
2022-07-28T09:39:40.234Z,9.745588
2022-07-28T09:40:40.227Z,9.745637
2022-07-28T09:41:40.229Z,9.745709
2022-07-28T09:42:40.211Z,9.745627
2022-07-28T09:43:40.232Z,9.745635
2022-07-28T09:44:40.193Z,9.745371
2022-07-28T09:45:40.236Z,9.745124
2022-07-28T09:46:40.394Z,9.745373
2022-07-28T09:47:40.448Z,9.745386
2022-07-28T09:48:40.314Z,9.745542
2022-07-28T09:49:40.235Z,9.745597
2022-07-28T09:50:40.149Z,9.745394
2022-07-28T09:51:40.141Z,9.744576
2022-07-28T09:52:40.138Z,9.745553
2022-07-28T09:53:40.133Z,9.745653
2022-07-28T09:54:41.233Z,9.745533
2022-07-28T09:55:41.119Z,9.745561
2022-07-28T09:56:40.117Z,9.745562
2022-07-28T09:57:40.231Z,9.745661
2022-07-28T09:58:40.091Z,9.745317
2022-07-28T09:59:41.114Z,9.745229
2022-07-28T10:00:40.082Z,9.745317
2022-07-28T10:01:40.162Z,9.745559
2022-07-28T10:02:40.162Z,9.745534
2022-07-28T10:03:40.061Z,9.745687
2022-07-28T10:04:40.077Z,9.745622
2022-07-28T10:05:40.042Z,9.745564
2022-07-28T10:06:40.034Z,9.745494
2022-07-28T10:07:40.023Z,9.745537
2022-07-28T10:08:41.858Z,9.745708
2022-07-28T10:09:40.041Z,9.745771
2022-07-28T10:10:40.002Z,9.745691
2022-07-28T10:11:41.869Z,9.745667
2022-07-28T10:12:40.980Z,9.745619
2022-07-28T10:13:39.979Z,9.745555
2022-07-28T10:14:39.998Z,9.745417
2022-07-28T10:15:43.307Z,9.745586
2022-07-28T10:16:40.997Z,9.745465
2022-07-28T10:17:39.946Z,9.745394
2022-07-28T10:18:39.958Z,9.745429
2022-07-28T10:19:39.956Z,9.745497
2022-07-28T10:20:39.919Z,9.745522
2022-07-28T10:21:39.913Z,9.745546
2022-07-28T10:22:43.305Z,9.745709
2022-07-28T10:23:40.895Z,9.745627
2022-07-28T10:24:39.936Z,9.745708
2022-07-28T10:25:40.893Z,9.745801
2022-07-28T10:26:39.879Z,9.745473
2022-07-28T10:27:39.870Z,9.745517
2022-07-28T10:28:42.337Z,9.745406
2022-07-28T10:29:40.883Z,9.745553
2022-07-28T10:30:39.884Z,9.745577
2022-07-28T10:31:39.843Z,9.745449
2022-07-28T10:32:39.839Z,9.745533
2022-07-28T10:33:39.832Z,9.745596
2022-07-28T10:34:39.832Z,9.745555
2022-07-28T10:35:51.003Z,9.745572
2022-07-28T10:36:40.804Z,9.745565
2022-07-28T10:37:39.796Z,9.745414
2022-07-28T10:38:39.790Z,9.745480
2022-07-28T10:39:39.803Z,9.745708
2022-07-28T10:40:39.771Z,9.745783
2022-07-28T10:41:39.766Z,9.745618
2022-07-28T10:42:39.754Z,9.745606
2022-07-28T10:43:42.727Z,9.745623
2022-07-28T10:44:40.761Z,9.745549
2022-07-28T10:46:04.571Z,9.745437
2022-07-28T10:46:41.779Z,9.745463
2022-07-28T10:47:39.717Z,9.745676
2022-07-28T10:48:39.746Z,9.745366
2022-07-28T10:49:39.737Z,9.745610
2022-07-28T10:50:39.708Z,9.745523
2022-07-28T10:51:59.793Z,9.745402
2022-07-28T10:52:50.628Z,9.745518
2022-07-28T10:53:41.680Z,9.745524
2022-07-28T10:54:41.019Z,9.745656
2022-07-28T10:55:40.758Z,9.745504
2022-07-28T10:56:39.665Z,9.745435
2022-07-28T10:57:39.647Z,9.745533
2022-07-28T10:58:39.642Z,9.745431
2022-07-28T10:59:39.630Z,9.745545
2022-07-28T11:00:54.990Z,9.745741
2022-07-28T11:01:50.030Z,9.745636
2022-07-28T11:02:41.757Z,9.745667
2022-07-28T11:03:39.689Z,9.745664
2022-07-28T11:04:39.598Z,9.745658
2022-07-28T11:05:39.611Z,9.745491
2022-07-28T11:06:39.578Z,9.745597
2022-07-28T11:07:39.586Z,9.745494
2022-07-28T11:08:39.566Z,9.745622
2022-07-28T11:09:39.550Z,9.745418
2022-07-28T11:10:39.575Z,9.745473
2022-07-28T11:11:39.541Z,9.745440
2022-07-28T11:12:39.530Z,9.745468
2022-07-28T11:13:41.272Z,9.745411
2022-07-28T11:14:39.839Z,9.745485
2022-07-28T11:15:39.547Z,9.745360
2022-07-28T11:16:39.568Z,9.745203
2022-07-28T11:17:39.718Z,9.745375
2022-07-28T11:18:39.666Z,9.745341
2022-07-28T11:19:46.925Z,9.745282
2022-07-28T11:20:40.498Z,9.745317
2022-07-28T11:21:43.485Z,9.745378
2022-07-28T11:22:39.456Z,9.745418
2022-07-28T11:23:39.444Z,9.745453
2022-07-28T11:24:39.459Z,9.745396
2022-07-28T11:25:40.456Z,9.745332
2022-07-28T11:26:39.431Z,9.745283
2022-07-28T11:27:39.420Z,9.745411
2022-07-28T11:28:39.422Z,9.745470
2022-07-28T11:29:39.418Z,9.745280
2022-07-28T11:30:39.456Z,9.745489
2022-07-28T11:31:39.399Z,9.745504
2022-07-28T11:32:44.200Z,9.745428
2022-07-28T11:33:47.072Z,9.745712
2022-07-28T11:34:40.368Z,9.745836
2022-07-28T11:35:39.390Z,9.745692
2022-07-28T11:36:39.356Z,9.745491
2022-07-28T11:37:39.354Z,9.745553
2022-07-28T11:38:39.340Z,9.745517
2022-07-28T11:39:43.327Z,9.745454
2022-07-28T11:40:39.356Z,9.745361
2022-07-28T11:41:39.316Z,9.745334
2022-07-28T11:42:39.312Z,9.745621
2022-07-28T11:43:39.617Z,9.745665
2022-07-28T11:44:39.293Z,9.745521